Time;durP1;ratioP1;P1;durP2;ratioP2;P2;SDS_P1;SDS_P2;PMS_P1;PMS_P2;Temp;Humidity;BMP_temperature;BMP_pressure;BME280_temperature;BME280_humidity;BME280_pressure;Samples;Min_cycle;Max_cycle;Signal;HPM_P1;HPM_P2
2021/10/25 00:02:24;;;;;;;501.70;344.38;;;8.70;99.90;;;;;;5087291;28;20197;-76
2021/10/25 00:04:52;;;;;;;500.92;339.00;;;8.70;99.90;;;;;;5092960;28;20286;-76
2021/10/25 00:07:20;;;;;;;486.38;298.67;;;8.60;99.90;;;;;;5088134;28;20247;-76
2021/10/25 00:09:47;;;;;;;503.25;347.17;;;8.60;99.90;;;;;;5087244;28;20227;-76
2021/10/25 00:12:14;;;;;;;485.80;299.50;;;8.60;99.90;;;;;;5087248;28;20197;-76
2021/10/25 00:14:41;;;;;;;498.67;337.25;;;8.60;99.90;;;;;;5087564;28;20201;-77
2021/10/25 00:17:08;;;;;;;491.60;317.08;;;8.50;99.90;;;;;;5087720;28;20201;-77
2021/10/25 00:19:35;;;;;;;481.30;298.35;;;8.50;99.90;;;;;;5093647;28;20209;-76
2021/10/25 00:22:03;;;;;;;492.77;332.88;;;8.50;99.90;;;;;;5087163;28;20250;-76
2021/10/25 00:24:31;;;;;;;499.45;351.58;;;8.50;99.90;;;;;;5090786;28;20194;-76
2021/10/25 00:26:58;;;;;;;497.33;341.33;;;8.50;99.90;;;;;;5089805;28;20201;-76
2021/10/25 00:29:26;;;;;;;489.88;339.75;;;8.50;99.90;;;;;;5092954;28;20222;-76
2021/10/25 00:31:53;;;;;;;490.45;335.00;;;8.50;99.90;;;;;;5091150;28;20226;-76
2021/10/25 00:34:20;;;;;;;493.98;327.13;;;8.40;99.90;;;;;;5089511;28;20254;-76
2021/10/25 00:36:46;;;;;;;484.33;297.05;;;8.40;99.90;;;;;;5092790;28;20216;-76
2021/10/25 00:39:14;;;;;;;489.08;328.23;;;8.50;99.90;;;;;;5086891;28;20223;-76
2021/10/25 00:41:42;;;;;;;491.38;332.50;;;8.50;99.90;;;;;;5070445;28;20205;-76
2021/10/25 00:44:09;;;;;;;497.40;331.55;;;8.50;99.90;;;;;;5091652;28;20226;-76
2021/10/25 00:46:38;;;;;;;491.75;341.50;;;8.50;99.90;;;;;;5096107;28;20208;-76
2021/10/25 00:49:05;;;;;;;494.15;318.38;;;8.50;99.90;;;;;;5087232;28;20225;-76
2021/10/25 00:51:33;;;;;;;495.83;328.80;;;8.40;99.90;;;;;;5087224;28;20202;-77
2021/10/25 00:54:00;;;;;;;493.05;324.80;;;8.40;99.90;;;;;;5087679;28;20197;-76
2021/10/25 00:56:27;;;;;;;498.63;339.77;;;8.40;99.90;;;;;;5086284;28;20270;-77
2021/10/25 00:58:57;;;;;;;482.60;294.85;;;8.30;99.90;;;;;;5093485;28;20208;-76
2021/10/25 01:01:24;;;;;;;499.40;332.85;;;8.30;99.90;;;;;;5086848;28;20214;-76
2021/10/25 01:03:51;;;;;;;495.70;338.85;;;8.30;99.90;;;;;;5092874;28;20231;-76
2021/10/25 01:06:18;;;;;;;488.70;325.67;;;8.30;99.90;;;;;;5086768;28;20230;-77
2021/10/25 01:08:46;;;;;;;487.10;289.60;;;8.30;99.90;;;;;;5087231;28;20286;-76
2021/10/25 01:11:13;;;;;;;489.50;325.50;;;8.30;99.90;;;;;;5086320;28;20242;-77
2021/10/25 01:13:41;;;;;;;489.60;296.38;;;8.30;99.90;;;;;;5092723;28;20253;-77
2021/10/25 01:16:10;;;;;;;498.30;329.73;;;8.40;99.90;;;;;;5089945;28;20203;-77
2021/10/25 01:18:38;;;;;;;488.92;331.23;;;8.40;99.90;;;;;;5090161;28;20230;-77
2021/10/25 01:21:07;;;;;;;503.58;341.77;;;8.40;99.90;;;;;;5087876;28;20200;-77
2021/10/25 01:23:34;;;;;;;479.67;307.52;;;8.50;99.90;;;;;;5091107;28;20245;-77
2021/10/25 01:26:01;;;;;;;499.88;341.27;;;8.50;99.90;;;;;;5085872;28;20208;-77
2021/10/25 01:28:28;;;;;;;491.33;324.02;;;8.50;99.90;;;;;;5089916;28;20211;-77
2021/10/25 01:30:55;;;;;;;485.63;308.85;;;8.50;99.90;;;;;;5092244;28;20229;-77
2021/10/25 01:33:22;;;;;;;500.30;344.20;;;8.60;99.90;;;;;;5089243;28;20215;-78
2021/10/25 01:35:50;;;;;;;497.33;331.42;;;8.60;99.90;;;;;;5086261;28;20205;-77
2021/10/25 01:38:18;;;;;;;501.95;347.02;;;8.60;99.90;;;;;;5089594;28;20221;-76
2021/10/25 01:40:45;;;;;;;498.38;346.48;;;8.60;99.90;;;;;;5090701;28;20207;-76
2021/10/25 01:43:12;;;;;;;486.50;306.25;;;8.60;99.90;;;;;;5086409;28;20215;-76
2021/10/25 01:45:39;;;;;;;500.55;338.10;;;8.60;99.90;;;;;;5086413;28;20211;-76
2021/10/25 01:48:07;;;;;;;496.75;349.50;;;8.60;99.90;;;;;;5086598;28;20274;-76
2021/10/25 01:50:34;;;;;;;493.48;353.83;;;8.60;99.90;;;;;;5086134;28;20200;-76
2021/10/25 01:53:04;;;;;;;498.73;363.35;;;8.60;99.90;;;;;;5086273;28;20196;-76
2021/10/25 01:55:33;;;;;;;485.90;299.98;;;8.60;99.90;;;;;;5086883;28;20204;-76
2021/10/25 01:58:00;;;;;;;503.33;358.10;;;8.60;99.90;;;;;;5090394;28;20651;-76
2021/10/25 02:00:27;;;;;;;505.55;346.67;;;8.60;99.90;;;;;;5090079;28;20253;-76
2021/10/25 02:02:54;;;;;;;496.58;351.25;;;8.70;99.90;;;;;;5091200;28;20204;-76
2021/10/25 02:05:21;;;;;;;491.90;351.55;;;8.70;99.90;;;;;;5087320;28;20200;-76
2021/10/25 02:07:48;;;;;;;499.33;348.60;;;8.70;99.90;;;;;;5085255;28;20228;-77
2021/10/25 02:10:15;;;;;;;497.38;355.02;;;8.70;99.90;;;;;;5085368;28;20231;-77
2021/10/25 02:12:44;;;;;;;483.73;316.75;;;8.60;99.90;;;;;;5086689;28;20571;-76
2021/10/25 02:15:11;;;;;;;492.10;339.08;;;8.70;99.90;;;;;;5086145;28;20205;-76
2021/10/25 02:17:38;;;;;;;497.45;362.77;;;8.70;99.90;;;;;;5092936;28;20218;-76
2021/10/25 02:20:06;;;;;;;494.10;352.63;;;8.70;99.90;;;;;;5085841;28;20209;-76
2021/10/25 02:22:33;;;;;;;499.17;366.05;;;8.70;99.90;;;;;;5096110;28;20200;-76
2021/10/25 02:25:00;;;;;;;500.63;361.88;;;8.70;99.90;;;;;;5085700;28;20206;-76
2021/10/25 02:27:27;;;;;;;481.83;306.63;;;8.70;99.90;;;;;;5085511;28;20550;-76
2021/10/25 02:29:55;;;;;;;497.27;355.30;;;8.70;99.90;;;;;;5085187;28;20201;-77
2021/10/25 02:32:22;;;;;;;478.48;311.05;;;8.70;99.90;;;;;;5085305;28;20200;-76
2021/10/25 02:34:50;;;;;;;485.58;305.45;;;8.70;99.90;;;;;;5085481;28;20204;-76
2021/10/25 02:37:17;;;;;;;497.17;356.27;;;8.70;99.90;;;;;;5085966;28;20659;-76
2021/10/25 02:39:47;;;;;;;494.15;354.17;;;8.60;99.90;;;;;;5090296;28;20996;-76
2021/10/25 02:42:14;;;;;;;496.77;355.67;;;8.60;99.90;;;;;;5093926;28;20570;-77
2021/10/25 02:44:42;;;;;;;497.60;358.75;;;8.60;99.90;;;;;;5085477;28;20207;-77
2021/10/25 02:47:11;;;;;;;504.20;356.85;;;8.50;99.90;;;;;;5088867;28;20291;-77
2021/10/25 02:49:38;;;;;;;482.73;299.98;;;8.50;99.90;;;;;;5094410;28;20232;-77
2021/10/25 02:52:06;;;;;;;481.83;298.25;;;8.50;99.90;;;;;;5089608;28;20199;-76
2021/10/25 02:54:33;;;;;;;481.98;320.38;;;8.60;99.90;;;;;;5088954;28;20227;-77
2021/10/25 02:56:59;;;;;;;480.25;307.08;;;8.60;99.90;;;;;;5089539;28;20651;-77
2021/10/25 02:59:26;;;;;;;483.17;295.77;;;8.50;99.90;;;;;;5095983;28;20204;-77
2021/10/25 03:01:53;;;;;;;498.05;345.85;;;8.60;99.90;;;;;;5088883;28;20205;-77
2021/10/25 03:04:22;;;;;;;482.13;307.15;;;8.60;99.90;;;;;;5088938;28;20262;-77
2021/10/25 03:06:49;;;;;;;493.42;343.67;;;8.60;99.90;;;;;;5093594;28;20209;-77
2021/10/25 03:09:16;;;;;;;495.33;341.15;;;8.60;99.90;;;;;;5089477;28;20225;-77
2021/10/25 03:11:43;;;;;;;495.63;327.58;;;8.60;99.90;;;;;;5093491;28;20226;-76
2021/10/25 03:14:10;;;;;;;497.25;344.33;;;8.50;99.90;;;;;;5093675;28;20200;-77
2021/10/25 03:16:37;;;;;;;487.83;323.65;;;8.60;99.90;;;;;;5089984;28;20208;-77
2021/10/25 03:19:04;;;;;;;491.92;345.60;;;8.60;99.90;;;;;;5092343;28;20211;-76
2021/10/25 03:21:33;;;;;;;493.42;340.13;;;8.60;99.90;;;;;;5088594;28;20197;-76
2021/10/25 03:24:00;;;;;;;491.92;334.40;;;8.50;99.90;;;;;;5090484;28;20581;-77
2021/10/25 03:26:27;;;;;;;500.15;334.55;;;8.50;99.90;;;;;;5094158;28;20200;-76
2021/10/25 03:28:54;;;;;;;488.40;340.20;;;8.40;99.90;;;;;;5088853;28;20242;-76
2021/10/25 03:31:22;;;;;;;498.48;323.60;;;8.50;99.90;;;;;;5089133;28;20196;-76
2021/10/25 03:33:50;;;;;;;489.23;325.60;;;8.50;99.90;;;;;;5088591;28;20269;-76
2021/10/25 03:36:19;;;;;;;487.77;325.15;;;8.50;99.90;;;;;;5094577;28;20235;-76
2021/10/25 03:38:48;;;;;;;492.48;345.73;;;8.50;99.90;;;;;;5089751;28;20213;-76
2021/10/25 03:41:18;;;;;;;498.63;336.42;;;8.40;99.90;;;;;;5094685;28;20200;-76
2021/10/25 03:43:50;;;;;;;493.20;343.67;;;8.40;99.90;;;;;;5090567;28;20210;-76
2021/10/25 03:46:30;;;;;;;477.80;283.55;;;8.40;99.90;;;;;;5088518;28;20207;-76
2021/10/25 03:49:02;;;;;;;489.90;318.65;;;8.40;99.90;;;;;;5094546;28;20292;-77
2021/10/25 03:51:29;;;;;;;502.08;346.23;;;8.40;99.90;;;;;;5088260;28;20624;-77
2021/10/25 03:54:05;;;;;;;502.98;335.45;;;8.30;99.90;;;;;;5087682;28;20193;-77
2021/10/25 03:56:47;;;;;;;482.95;288.40;;;8.30;99.90;;;;;;5091817;28;20536;-77
2021/10/25 03:59:29;;;;;;;495.17;319.58;;;8.30;99.90;;;;;;5088507;28;20261;-77
2021/10/25 04:29:19;;;;;;;499.27;329.85;;;8.30;99.90;;;;;;5091355;28;20237;-77
2021/10/25 04:31:47;;;;;;;494.63;321.35;;;8.30;99.90;;;;;;5087636;28;20604;-77
2021/10/25 04:34:14;;;;;;;496.80;340.48;;;8.30;99.90;;;;;;5087839;28;20205;-77
2021/10/25 04:36:40;;;;;;;495.98;336.35;;;8.30;99.90;;;;;;5088467;28;20200;-77
2021/10/25 04:39:09;;;;;;;501.20;342.88;;;8.30;99.90;;;;;;5089814;28;20201;-77
2021/10/25 04:41:38;;;;;;;480.77;291.02;;;8.20;99.90;;;;;;5090331;28;20250;-77
2021/10/25 04:44:06;;;;;;;481.13;287.98;;;8.20;99.90;;;;;;5087155;28;20201;-77
2021/10/25 04:46:33;;;;;;;482.60;294.80;;;8.20;99.90;;;;;;5096892;28;20208;-77
2021/10/25 04:49:00;;;;;;;500.33;324.83;;;8.20;99.90;;;;;;5087898;28;20224;-77
2021/10/25 04:51:28;;;;;;;482.63;291.00;;;8.20;99.90;;;;;;5092740;28;20204;-77
2021/10/25 04:53:56;;;;;;;482.42;295.88;;;8.30;99.90;;;;;;5087419;28;20234;-77
2021/10/25 04:56:23;;;;;;;489.95;315.40;;;8.30;99.90;;;;;;5086969;28;20615;-77
2021/10/25 04:58:51;;;;;;;491.08;307.92;;;8.20;99.90;;;;;;5086733;28;20204;-77
2021/10/25 05:01:18;;;;;;;488.80;327.27;;;8.20;99.90;;;;;;5091494;28;21160;-77
2021/10/25 05:03:45;;;;;;;495.52;338.08;;;8.20;99.90;;;;;;5086362;28;20232;-77
2021/10/25 05:06:17;;;;;;;491.17;327.65;;;8.20;99.90;;;;;;5086563;28;20200;-77
2021/10/25 05:08:45;;;;;;;497.23;339.30;;;8.20;99.90;;;;;;5086055;28;20281;-77
2021/10/25 05:11:12;;;;;;;479.48;290.35;;;8.20;99.90;;;;;;5087030;28;20291;-77
2021/10/25 05:13:39;;;;;;;496.63;336.60;;;8.20;99.90;;;;;;5068524;28;20235;-76
2021/10/25 05:16:08;;;;;;;486.85;325.65;;;8.30;99.90;;;;;;5086060;28;20205;-77
2021/10/25 05:18:36;;;;;;;498.98;333.95;;;8.20;99.90;;;;;;5086579;28;20242;-76
2021/10/25 05:21:03;;;;;;;478.83;295.92;;;8.20;99.90;;;;;;5087165;28;20216;-76
2021/10/25 05:23:30;;;;;;;496.20;340.58;;;8.20;99.90;;;;;;5086398;28;20201;-76
2021/10/25 05:25:57;;;;;;;496.88;353.27;;;8.30;99.90;;;;;;5090157;28;20200;-76
2021/10/25 05:28:24;;;;;;;481.50;296.45;;;8.20;99.90;;;;;;5086071;28;20201;-76
2021/10/25 05:30:52;;;;;;;492.98;335.55;;;8.30;99.90;;;;;;5089379;28;20245;-77
2021/10/25 05:33:20;;;;;;;489.83;329.48;;;8.20;99.90;;;;;;5091591;28;20203;-76
2021/10/25 05:35:47;;;;;;;495.80;322.27;;;8.20;99.90;;;;;;5086196;28;20224;-76
2021/10/25 05:38:15;;;;;;;496.38;334.40;;;8.20;99.90;;;;;;5086521;28;20196;-76
2021/10/25 05:40:42;;;;;;;494.23;330.52;;;8.20;99.90;;;;;;5085816;28;20208;-76
2021/10/25 05:43:10;;;;;;;492.73;331.83;;;8.30;99.90;;;;;;5093289;28;20200;-76
2021/10/25 05:45:37;;;;;;;480.85;299.13;;;8.30;99.90;;;;;;5086354;28;20617;-76
2021/10/25 05:48:05;;;;;;;498.73;345.70;;;8.30;99.90;;;;;;5086033;28;20279;-76
2021/10/25 05:50:34;;;;;;;495.42;334.60;;;8.30;99.90;;;;;;5085416;28;20261;-76
2021/10/25 05:53:19;;;;;;;491.98;324.35;;;8.30;99.90;;;;;;5086405;28;20265;-77
2021/10/25 05:55:48;;;;;;;478.00;275.80;;;8.30;99.90;;;;;;5088687;28;20214;-76
2021/10/25 05:58:19;;;;;;;489.70;299.65;;;8.20;99.90;;;;;;5086168;28;20290;-76
2021/10/25 06:00:50;;;;;;;489.98;337.13;;;8.10;99.90;;;;;;5091364;28;20208;-76
2021/10/25 06:03:20;;;;;;;491.77;330.30;;;8.10;99.90;;;;;;5086126;28;20232;-76
2021/10/25 06:05:49;;;;;;;487.60;318.48;;;8.10;99.90;;;;;;5085186;28;20292;-76
2021/10/25 06:08:17;;;;;;;486.30;315.50;;;8.10;99.90;;;;;;5087735;28;20237;-76
2021/10/25 06:10:45;;;;;;;487.17;316.23;;;8.00;99.90;;;;;;5085288;28;20234;-77
2021/10/25 06:13:19;;;;;;;489.23;332.77;;;8.00;99.90;;;;;;5091807;28;20235;-77
2021/10/25 06:15:55;;;;;;;490.67;302.17;;;8.00;99.90;;;;;;5093230;28;20202;-76
2021/10/25 06:18:23;;;;;;;787.05;725.75;;;8.00;99.90;;;;;;5091063;28;20464;-76
2021/10/25 06:20:52;;;;;;;506.02;407.23;;;8.10;99.90;;;;;;5089269;28;20200;-76
2021/10/25 06:23:20;;;;;;;495.85;346.05;;;8.00;99.90;;;;;;5089754;28;20215;-76
2021/10/25 06:25:51;;;;;;;474.88;297.38;;;8.00;99.90;;;;;;5090168;28;20662;-76
2021/10/25 06:28:18;;;;;;;475.05;286.27;;;8.10;99.90;;;;;;5093303;28;20659;-76
2021/10/25 06:30:54;;;;;;;485.92;306.25;;;8.10;99.90;;;;;;5089586;28;20254;-76
2021/10/25 06:33:21;;;;;;;494.27;335.92;;;8.10;99.90;;;;;;5090139;28;20203;-76
2021/10/25 06:35:57;;;;;;;481.42;288.40;;;8.20;99.90;;;;;;5089516;28;20535;-76
2021/10/25 06:38:30;;;;;;;489.35;321.00;;;8.30;99.90;;;;;;5089479;28;20207;-76
2021/10/25 06:40:58;;;;;;;474.02;289.02;;;8.30;99.90;;;;;;5089022;28;20228;-76
2021/10/25 06:43:25;;;;;;;491.67;333.45;;;8.30;99.90;;;;;;5097005;28;20197;-76
2021/10/25 06:45:54;;;;;;;497.05;339.48;;;8.30;99.90;;;;;;5089395;28;20247;-78
2021/10/25 06:48:21;;;;;;;489.90;310.75;;;8.40;99.90;;;;;;5090092;28;20206;-76
2021/10/25 06:50:48;;;;;;;490.42;318.80;;;8.40;99.90;;;;;;5089590;28;20228;-76
2021/10/25 06:53:16;;;;;;;481.05;283.08;;;8.40;99.90;;;;;;5089281;28;20208;-76
2021/10/25 06:55:45;;;;;;;493.05;331.05;;;8.40;99.90;;;;;;5089338;28;20204;-76
2021/10/25 06:58:13;;;;;;;485.58;325.77;;;8.30;99.90;;;;;;5090523;28;20219;-77
2021/10/25 07:00:40;;;;;;;495.75;338.42;;;8.40;99.90;;;;;;5099183;28;20654;-76
2021/10/25 07:03:07;;;;;;;498.20;329.95;;;8.40;99.90;;;;;;5093800;28;20273;-76
2021/10/25 07:05:37;;;;;;;499.27;321.95;;;8.40;99.90;;;;;;5099028;28;20223;-78
2021/10/25 07:08:05;;;;;;;498.40;340.67;;;8.40;99.90;;;;;;5104267;28;20196;-77
2021/10/25 07:10:32;;;;;;;479.48;292.58;;;8.40;99.90;;;;;;5103260;28;20224;-77
2021/10/25 07:13:01;;;;;;;494.77;313.00;;;8.40;99.90;;;;;;5104521;28;20233;-76
2021/10/25 07:15:30;;;;;;;484.65;300.38;;;8.40;99.90;;;;;;5103318;28;20599;-76
2021/10/25 07:18:01;;;;;;;492.10;325.38;;;8.40;99.90;;;;;;5102858;28;20197;-76
2021/10/25 07:23:26;;;;;;;486.25;308.85;;;8.40;99.90;;;;;;5103103;28;20674;-76
2021/10/25 08:07:13;;;;;;;491.38;322.40;;;9.10;99.90;;;;;;5102168;28;20195;-76
2021/10/25 08:09:48;;;;;;;505.20;366.50;;;9.20;99.90;;;;;;5101344;28;20236;-77
2021/10/25 08:12:17;;;;;;;489.55;338.77;;;9.30;99.90;;;;;;5100216;28;20207;-76
2021/10/25 08:14:49;;;;;;;495.00;340.88;;;9.30;99.90;;;;;;5101866;28;20212;-76
2021/10/25 08:17:22;;;;;;;513.15;391.38;;;9.30;99.90;;;;;;5100405;28;20202;-77
2021/10/25 08:19:50;;;;;;;514.92;412.92;;;9.40;99.90;;;;;;5098562;28;20212;-77
2021/10/25 08:22:17;;;;;;;509.67;388.85;;;9.40;99.90;;;;;;5103478;28;20196;-77
2021/10/25 08:24:46;;;;;;;494.38;350.30;;;9.50;99.90;;;;;;5101619;28;20667;-77
2021/10/25 08:27:14;;;;;;;528.47;437.38;;;9.50;99.90;;;;;;5101969;28;20204;-77
2021/10/25 08:29:43;;;;;;;520.45;437.35;;;9.60;99.90;;;;;;5100650;28;20220;-77
2021/10/25 08:32:18;;;;;;;510.27;383.50;;;9.90;99.90;;;;;;5102625;28;20203;-77
2021/10/25 08:34:55;;;;;;;518.85;410.08;;;10.30;99.90;;;;;;5101114;28;20271;-77
2021/10/25 08:40:13;;;;;;;599.58;538.33;;;11.30;99.90;;;;;;5038039;28;20292;-77
2021/10/25 08:42:41;;;;;;;611.45;550.42;;;11.70;99.90;;;;;;5037456;28;20273;-77
2021/10/25 08:45:13;;;;;;;549.58;490.70;;;12.00;99.90;;;;;;5039027;28;20246;-76
2021/10/25 08:47:49;;;;;;;647.53;586.40;;;12.40;99.90;;;;;;5038701;28;20230;-77
2021/10/25 08:50:19;;;;;;;677.25;614.38;;;12.80;99.90;;;;;;5038586;28;20356;-77
2021/10/25 08:52:47;;;;;;;700.70;637.40;;;13.10;99.90;;;;;;5039057;28;20210;-77
2021/10/25 08:55:16;;;;;;;723.80;659.95;;;13.60;99.90;;;;;;5038581;28;20723;-77
2021/10/25 08:57:44;;;;;;;710.75;647.33;;;13.80;99.90;;;;;;5038077;28;20218;-77
2021/10/25 09:00:13;;;;;;;757.13;692.67;;;14.30;99.90;;;;;;5038227;28;20635;-77
2021/10/25 09:02:41;;;;;;;713.08;650.35;;;14.60;99.90;;;;;;5037872;28;20251;-76
2021/10/25 09:05:11;;;;;;;763.47;700.42;;;14.60;99.90;;;;;;5038739;28;20228;-77
2021/10/25 09:07:53;;;;;;;752.83;690.33;;;14.60;99.90;;;;;;5037471;28;20238;-77
2021/10/25 09:10:25;;;;;;;732.67;670.08;;;14.30;99.90;;;;;;5038767;28;20217;-77
2021/10/25 09:12:58;;;;;;;757.85;695.25;;;14.20;99.90;;;;;;5036759;28;20211;-77
2021/10/25 09:15:26;;;;;;;724.53;661.83;;;14.00;99.90;;;;;;5038865;28;20202;-77
2021/10/25 09:17:53;;;;;;;747.78;685.80;;;13.90;99.90;;;;;;5097097;28;20268;-77
2021/10/25 09:20:21;;;;;;;731.13;669.15;;;13.70;99.90;;;;;;5101320;28;20226;-77
2021/10/25 09:22:48;;;;;;;742.97;680.65;;;13.60;99.90;;;;;;5100467;28;20212;-77
2021/10/25 09:25:16;;;;;;;738.92;677.03;;;13.50;99.90;;;;;;5101121;28;20204;-77
2021/10/25 09:27:46;;;;;;;716.97;655.03;;;13.40;99.90;;;;;;5100074;28;20211;-77
2021/10/25 09:30:16;;;;;;;675.08;614.50;;;13.20;99.90;;;;;;5099821;28;20233;-77
2021/10/25 09:32:45;;;;;;;686.35;625.13;;;13.10;99.90;;;;;;5100317;28;20234;-77
2021/10/25 09:35:22;;;;;;;706.10;644.10;;;13.10;99.90;;;;;;5101197;28;20204;-77
2021/10/25 09:37:57;;;;;;;686.88;625.97;;;13.10;99.90;;;;;;5100673;28;20200;-77
2021/10/25 09:40:36;;;;;;;696.25;635.38;;;13.10;99.90;;;;;;5099672;28;20203;-77
2021/10/25 09:43:22;;;;;;;683.50;622.80;;;13.00;99.90;;;;;;5101347;28;20207;-77
2021/10/25 09:51:18;;;;;;;636.55;577.17;;;12.90;99.90;;;;;;5100061;28;20234;-77
2021/10/25 09:53:46;;;;;;;708.15;646.50;;;12.90;99.90;;;;;;5098024;28;20270;-77
2021/10/25 09:56:16;;;;;;;694.47;632.08;;;12.90;99.90;;;;;;5098451;28;20237;-77
2021/10/25 09:58:55;;;;;;;706.47;645.42;;;13.00;99.90;;;;;;5099352;28;20235;-77
2021/10/25 10:10:59;;;;;;;653.78;592.70;;;13.40;99.90;;;;;;5098148;28;20209;-77
2021/10/25 10:13:28;;;;;;;702.10;640.42;;;13.50;99.90;;;;;;5097243;28;20208;-77
2021/10/25 10:15:58;;;;;;;657.72;597.17;;;13.60;99.90;;;;;;5098340;28;20210;-76
2021/10/25 10:18:27;;;;;;;696.92;634.65;;;13.60;99.90;;;;;;5098323;28;20273;-76
2021/10/25 10:20:59;;;;;;;653.75;593.50;;;13.70;99.90;;;;;;5097390;28;20215;-76
2021/10/25 10:23:27;;;;;;;709.33;647.05;;;13.80;99.90;;;;;;5097223;28;20227;-77
2021/10/25 10:25:56;;;;;;;741.25;678.60;;;13.90;99.90;;;;;;5097225;28;20204;-77
2021/10/25 10:28:35;;;;;;;685.50;623.83;;;14.00;99.90;;;;;;5097828;28;20203;-76
2021/10/25 10:31:07;;;;;;;729.58;665.88;;;14.10;99.90;;;;;;5097261;28;20196;-77
2021/10/25 10:33:39;;;;;;;688.78;626.97;;;14.10;99.90;;;;;;5097722;28;20197;-76
2021/10/25 10:36:15;;;;;;;768.90;705.20;;;14.10;99.90;;;;;;5097607;28;20216;-76
2021/10/25 10:38:53;;;;;;;772.33;707.83;;;14.20;99.90;;;;;;5097959;28;20305;-76
2021/10/25 10:41:22;;;;;;;695.75;633.50;;;14.30;99.90;;;;;;5097522;28;20588;-77
2021/10/25 10:44:02;;;;;;;710.83;649.42;;;14.30;99.90;;;;;;5097539;28;20725;-77
2021/10/25 10:46:48;;;;;;;771.33;707.47;;;14.20;99.90;;;;;;5096976;28;20218;-77
2021/10/25 10:49:32;;;;;;;701.15;639.53;;;14.20;99.90;;;;;;5096545;28;20210;-77
2021/10/25 10:52:22;;;;;;;764.42;700.45;;;14.10;99.90;;;;;;5097898;28;20314;-77
2021/10/25 11:00:40;;;;;;;702.40;640.35;;;14.40;99.90;;;;;;5097235;28;20695;-77
2021/10/25 11:03:16;;;;;;;785.15;720.67;;;14.50;99.90;;;;;;5096733;28;20297;-77
2021/10/25 11:05:44;;;;;;;735.90;673.13;;;14.60;99.90;;;;;;5096617;28;20229;-77
2021/10/25 11:08:13;;;;;;;708.25;645.92;;;14.60;99.90;;;;;;5097713;28;20256;-77
2021/10/25 11:10:44;;;;;;;749.42;686.65;;;14.60;99.90;;;;;;5097207;28;20632;-77
2021/10/25 11:13:15;;;;;;;750.80;687.53;;;14.60;99.90;;;;;;5096714;28;20237;-77
2021/10/25 11:15:56;;;;;;;805.15;741.00;;;14.60;99.90;;;;;;5085906;28;20200;-77
2021/10/25 11:18:27;;;;;;;805.53;740.67;;;14.70;99.90;;;;;;5083238;28;20569;-77
2021/10/25 11:21:11;;;;;;;754.15;692.30;;;14.80;99.90;;;;;;5082868;28;20236;-77
2021/10/25 11:23:43;;;;;;;788.75;725.28;;;14.90;99.90;;;;;;5083126;28;20242;-77
2021/10/25 11:26:19;;;;;;;769.75;707.15;;;14.90;99.90;;;;;;5084353;28;20238;-78
2021/10/25 11:29:03;;;;;;;798.55;735.35;;;14.90;99.90;;;;;;5082384;28;20208;-77
2021/10/25 11:31:32;;;;;;;811.85;748.75;;;14.90;99.90;;;;;;5082656;28;20266;-77
2021/10/25 11:34:01;;;;;;;809.78;746.85;;;15.00;99.90;;;;;;5082187;28;20206;-77
2021/10/25 11:36:33;;;;;;;799.22;736.35;;;15.00;99.90;;;;;;5083190;28;20222;-77
2021/10/25 11:39:02;;;;;;;786.08;723.17;;;15.10;99.90;;;;;;5083182;28;20269;-77
2021/10/25 11:41:31;;;;;;;767.38;705.30;;;15.10;99.90;;;;;;5083614;28;20266;-77
2021/10/25 11:43:57;;;;;;;777.28;714.17;;;15.10;99.90;;;;;;5082425;28;20293;-77
2021/10/25 11:46:24;;;;;;;776.97;714.75;;;15.10;99.90;;;;;;5082748;28;20266;-77
2021/10/25 11:48:54;;;;;;;779.25;716.38;;;15.10;99.90;;;;;;5083698;28;20212;-77
2021/10/25 11:51:21;;;;;;;773.97;711.10;;;15.20;99.90;;;;;;5082984;28;20198;-77
2021/10/25 11:53:55;;;;;;;815.95;753.22;;;15.30;99.90;;;;;;5083672;28;20201;-77
2021/10/25 11:56:22;;;;;;;778.20;716.42;;;15.30;99.90;;;;;;5083688;28;20202;-77
2021/10/25 11:58:50;;;;;;;811.20;748.58;;;15.30;99.90;;;;;;5083410;28;20200;-77
2021/10/25 12:01:17;;;;;;;786.75;724.08;;;15.30;99.90;;;;;;5082875;28;20264;-77
2021/10/25 12:03:45;;;;;;;821.65;759.08;;;15.20;99.90;;;;;;5082488;28;20247;-77
2021/10/25 12:06:16;;;;;;;826.75;762.88;;;15.30;99.90;;;;;;5082992;28;20274;-77
2021/10/25 12:08:58;;;;;;;785.20;723.30;;;15.30;99.90;;;;;;5083690;28;20207;-77
2021/10/25 12:11:53;;;;;;;813.80;750.58;;;15.30;99.90;;;;;;5085611;28;20264;-77
2021/10/25 12:14:26;;;;;;;810.17;746.45;;;15.30;99.90;;;;;;5083922;28;20206;-77
2021/10/25 12:16:53;;;;;;;829.35;765.67;;;15.30;99.90;;;;;;5083515;28;20202;-77
2021/10/25 12:19:20;;;;;;;818.83;755.63;;;15.30;99.90;;;;;;5082931;28;20209;-77
2021/10/25 12:21:48;;;;;;;842.95;779.55;;;15.30;99.90;;;;;;5083678;28;20292;-76
2021/10/25 12:24:15;;;;;;;806.55;743.30;;;15.30;99.90;;;;;;5083796;28;20287;-77
2021/10/25 12:26:45;;;;;;;824.00;760.88;;;15.40;99.90;;;;;;5081173;28;20211;-76
2021/10/25 12:29:19;;;;;;;791.60;729.15;;;15.50;99.90;;;;;;5081782;28;20230;-77
2021/10/25 12:31:50;;;;;;;829.85;766.08;;;15.50;99.90;;;;;;5081536;28;20194;-77
2021/10/25 12:34:17;;;;;;;836.08;771.88;;;15.60;99.90;;;;;;5081962;28;20588;-77
2021/10/25 12:36:46;;;;;;;796.72;734.63;;;15.60;99.90;;;;;;5081554;28;20203;-77
2021/10/25 12:39:15;;;;;;;834.45;771.08;;;15.70;99.90;;;;;;5081201;28;20217;-77
2021/10/25 12:41:51;;;;;;;841.60;776.83;;;15.80;99.90;;;;;;5080249;28;20300;-76
2021/10/25 12:44:27;;;;;;;826.75;763.50;;;15.70;99.90;;;;;;5081439;28;20240;-77
2021/10/25 12:47:10;;;;;;;834.67;770.65;;;15.80;99.90;;;;;;5081076;28;20215;-77
2021/10/25 12:49:37;;;;;;;789.83;726.60;;;15.80;99.90;;;;;;5081600;28;20212;-77
2021/10/25 12:52:07;;;;;;;846.63;782.95;;;15.70;99.90;;;;;;5082143;28;20228;-77
2021/10/25 12:54:35;;;;;;;789.28;725.88;;;15.70;99.90;;;;;;5081634;28;20198;-77
2021/10/25 12:57:06;;;;;;;812.28;748.40;;;15.70;99.90;;;;;;5081298;28;20220;-77
2021/10/25 12:59:34;;;;;;;852.55;787.38;;;15.70;99.90;;;;;;5081308;28;20206;-77
2021/10/25 13:02:01;;;;;;;842.90;779.05;;;15.70;99.90;;;;;;5079720;28;20230;-77
2021/10/25 13:04:34;;;;;;;857.05;792.22;;;15.70;99.90;;;;;;5080850;28;20234;-77
2021/10/25 13:07:11;;;;;;;792.13;728.35;;;15.60;99.90;;;;;;5080831;28;20231;-77
2021/10/25 13:09:48;;;;;;;829.35;765.63;;;15.70;99.90;;;;;;5081908;28;20216;-77
2021/10/25 13:12:15;;;;;;;832.65;768.78;;;15.70;99.90;;;;;;5081961;28;20201;-77
2021/10/25 13:14:43;;;;;;;812.72;749.85;;;15.70;99.90;;;;;;5081669;28;20654;-76
2021/10/25 13:17:11;;;;;;;830.50;766.80;;;15.70;99.90;;;;;;5081186;28;20215;-77
2021/10/25 13:19:39;;;;;;;837.40;773.88;;;15.70;99.90;;;;;;5081142;28;20216;-77
2021/10/25 13:22:06;;;;;;;840.95;777.85;;;15.70;99.90;;;;;;5080983;28;20210;-77
2021/10/25 13:24:33;;;;;;;855.45;791.42;;;15.70;99.90;;;;;;5080939;28;20257;-77
2021/10/25 13:27:00;;;;;;;846.55;783.17;;;15.70;99.90;;;;;;5081194;28;20235;-77
2021/10/25 13:29:27;;;;;;;790.22;728.30;;;15.70;99.90;;;;;;5080644;28;20202;-77
2021/10/25 13:31:54;;;;;;;839.88;776.58;;;15.60;99.90;;;;;;5081184;28;20628;-77
2021/10/25 13:34:21;;;;;;;842.50;777.92;;;15.70;99.90;;;;;;5080394;28;20230;-77
2021/10/25 13:36:50;;;;;;;827.90;765.05;;;15.60;99.90;;;;;;5080539;28;20930;-76
2021/10/25 13:39:18;;;;;;;818.55;755.92;;;15.60;99.90;;;;;;5080130;28;20299;-77
2021/10/25 13:41:45;;;;;;;846.72;782.42;;;15.60;99.90;;;;;;5080684;28;20202;-76
2021/10/25 13:44:13;;;;;;;799.15;737.17;;;15.60;99.90;;;;;;5080254;28;20241;-76
2021/10/25 13:46:40;;;;;;;832.13;767.95;;;15.70;99.90;;;;;;5079858;28;20202;-77
2021/10/25 13:49:07;;;;;;;799.67;736.65;;;15.70;99.90;;;;;;5081048;28;20206;-76
2021/10/25 13:51:34;;;;;;;784.00;721.47;;;15.60;99.90;;;;;;5081029;28;20206;-76
2021/10/25 13:54:04;;;;;;;828.92;765.78;;;15.60;99.90;;;;;;5079779;28;20236;-77
2021/10/25 13:56:31;;;;;;;835.72;771.97;;;15.40;99.90;;;;;;5079421;28;20202;-77
2021/10/25 13:58:58;;;;;;;830.50;767.03;;;15.40;99.90;;;;;;5080327;28;20214;-77
2021/10/25 14:01:25;;;;;;;803.25;741.42;;;15.40;99.90;;;;;;5080644;28;20197;-77